ロサンゼルス の空港の天気 - METARとTAF

ロサンゼルス国際空港 ( KLAX / LAX ) - アメリカ カリフォルニア州ロサンゼルス
飛行場実況気象(Metar)
観測時間10/18 08:53 PDT (10/18 15:53 UTC)
風向・風速東 2m/s
視程10km以上
天気現象
なし
気温21.1℃
湿度29%
気圧1018.4hPa
METARKLAX 181553Z 09004KT 10SM CLR 21/02 A3008 RMK AO2 SLP184 T02110022 $
過去の天気等 Google飛行場航空写真 Wunderground天気予報

過去48時間のMETAR

飛行場予報(TAF)
発表時間: 10/18 08:05 PDT (10/18 15:05 UTC)
予報対象時間: 18日8時 PDT ~ 19日11時 PDT
風向・風速東北東 2m/s
視程10km以上
なし
18日11時 PDT から
風向・風速不定 2m/s
視程10km以上
なし
18日13時 PDT から
風向・風速西 6m/s
視程10km以上
なし
18日20時 PDT から
風向・風速西南西 4m/s
視程10km以上
なし
18日23時 PDT から
風向・風速不定 2m/s
視程10km以上
なし
19日10時 PDT から
風向・風速西北西 3m/s
視程10km以上
なし
KLAX 181505Z 1815/1918 06003KT P6SM SKC
FM181800 VRB03KT P6SM SKC
FM182000 26012KT P6SM SKC
FM190300 25007KT P6SM SKC
FM190600 VRB03KT P6SM SKC
FM191700 29006KT P6SM SKC